DAL130 KLAS-KDEN
Flight info
| Callsign | DAL130 |
|---|---|
| Flight time | 1h 21m |
| Altitude | 41000 |
| Route | GIDGT3 TUKRR BUMMP SSKII4 |
| Aircraft | A359/H-SDE2E3GHIJ3J4J5LM1ORWXY/LB1D1 |
Departure
| Time | 2026-05-07 19:14 |
|---|---|
| Airport | Harry Reid International Airport (KLAS) |
Arrival
| Time | 2026-05-07 20:35 |
|---|---|
| Airport | Denver International Airport (KDEN) |
| Time | Latitude | Longitude | Altitude | Speed | Heading |
|---|---|---|---|---|---|
| 2026-05-07 18:51 | 36.08517 | -115.13364 | 2090 ft | 0 kts | 1° |
| 2026-05-07 18:52 | 36.09022 | -115.16529 | 2130 ft | 0 kts | 0° |
| 2026-05-07 18:54 | 36.09022 | -115.16601 | 2132 ft | 0 kts | 0° |
| 2026-05-07 18:54 | 36.08544 | -115.13364 | 2089 ft | 0 kts | 1° |
| 2026-05-07 18:54 | 36.08369 | -115.12976 | 2086 ft | 0 kts | 24° |
| 2026-05-07 18:55 | 36.08544 | -115.13363 | 2089 ft | 0 kts | 1° |
| 2026-05-07 19:03 | 36.08537 | -115.13364 | 2089 ft | 2 kts | 1° |
| 2026-05-07 19:03 | 36.08512 | -115.13367 | 2091 ft | 4 kts | 18° |
| 2026-05-07 19:04 | 36.08488 | -115.13381 | 2090 ft | 3 kts | 34° |
| 2026-05-07 19:04 | 36.08472 | -115.13397 | 2092 ft | 4 kts | 64° |
| 2026-05-07 19:04 | 36.08460 | -115.13423 | 2091 ft | 3 kts | 46° |
| 2026-05-07 19:04 | 36.08448 | -115.13446 | 2092 ft | 4 kts | 101° |
| 2026-05-07 19:05 | 36.08462 | -115.13468 | 2091 ft | 4 kts | 142° |
| 2026-05-07 19:05 | 36.08467 | -115.13473 | 2091 ft | 0 kts | 138° |
| 2026-05-07 19:06 | 36.08467 | -115.13472 | 2091 ft | 0 kts | 136° |
| 2026-05-07 19:06 | 36.08467 | -115.13471 | 2091 ft | 0 kts | 133° |
| 2026-05-07 19:07 | 36.08448 | -115.13442 | 2092 ft | 7 kts | 128° |
| 2026-05-07 19:08 | 36.08415 | -115.13397 | 2094 ft | 7 kts | 133° |
| 2026-05-07 19:08 | 36.08383 | -115.13357 | 2096 ft | 6 kts | 135° |
| 2026-05-07 19:08 | 36.08354 | -115.13323 | 2098 ft | 5 kts | 138° |
| 2026-05-07 19:08 | 36.08328 | -115.13308 | 2100 ft | 3 kts | 166° |
| 2026-05-07 19:09 | 36.08302 | -115.13301 | 2102 ft | 6 kts | 168° |
| 2026-05-07 19:09 | 36.08250 | -115.13295 | 2105 ft | 9 kts | 179° |
| 2026-05-07 19:09 | 36.08160 | -115.13291 | 2112 ft | 15 kts | 178° |
| 2026-05-07 19:09 | 36.08068 | -115.13289 | 2122 ft | 12 kts | 180° |
| 2026-05-07 19:10 | 36.07992 | -115.13291 | 2126 ft | 10 kts | 181° |
| 2026-05-07 19:10 | 36.07927 | -115.13292 | 2127 ft | 9 kts | 181° |
| 2026-05-07 19:10 | 36.07868 | -115.13286 | 2129 ft | 9 kts | 164° |
| 2026-05-07 19:10 | 36.07829 | -115.13227 | 2129 ft | 11 kts | 99° |
| 2026-05-07 19:11 | 36.07827 | -115.13111 | 2127 ft | 17 kts | 91° |
| 2026-05-07 19:11 | 36.07828 | -115.12936 | 2126 ft | 22 kts | 90° |
| 2026-05-07 19:11 | 36.07830 | -115.12735 | 2122 ft | 26 kts | 89° |
| 2026-05-07 19:11 | 36.07829 | -115.12508 | 2123 ft | 27 kts | 90° |
| 2026-05-07 19:12 | 36.07827 | -115.12301 | 2129 ft | 16 kts | 98° |
| 2026-05-07 19:12 | 36.07774 | -115.12187 | 2126 ft | 15 kts | 130° |
| 2026-05-07 19:12 | 36.07692 | -115.12124 | 2130 ft | 13 kts | 172° |
| 2026-05-07 19:12 | 36.07646 | -115.12148 | 2131 ft | 2 kts | 260° |
| 2026-05-07 19:13 | 36.07644 | -115.12194 | 2131 ft | 12 kts | 268° |
| 2026-05-07 19:13 | 36.07642 | -115.12580 | 2130 ft | 83 kts | 270° |
| 2026-05-07 19:13 | 36.07639 | -115.13579 | 2132 ft | 147 kts | 270° |
| 2026-05-07 19:13 | 36.07650 | -115.14996 | 2537 ft | 167 kts | 271° |
| 2026-05-07 19:14 | 36.07658 | -115.16458 | 3140 ft | 175 kts | 271° |
| 2026-05-07 19:14 | 36.07654 | -115.18026 | 3503 ft | 191 kts | 270° |
| 2026-05-07 19:14 | 36.07648 | -115.19770 | 3725 ft | 215 kts | 270° |
| 2026-05-07 19:14 | 36.07645 | -115.21683 | 4100 ft | 228 kts | 271° |
| 2026-05-07 19:15 | 36.07644 | -115.23656 | 4686 ft | 230 kts | 270° |
| 2026-05-07 19:15 | 36.07691 | -115.25637 | 5339 ft | 231 kts | 278° |
| 2026-05-07 19:15 | 36.08253 | -115.27477 | 5984 ft | 231 kts | 307° |
| 2026-05-07 19:15 | 36.09526 | -115.28724 | 6390 ft | 243 kts | 338° |
| 2026-05-07 19:16 | 36.11195 | -115.29303 | 6810 ft | 255 kts | 348° |
| 2026-05-07 19:16 | 36.12957 | -115.29670 | 7416 ft | 258 kts | 356° |
| 2026-05-07 19:16 | 36.14737 | -115.29382 | 8025 ft | 261 kts | 20° |
| 2026-05-07 19:16 | 36.16231 | -115.28137 | 8456 ft | 272 kts | 47° |
| 2026-05-07 19:17 | 36.17292 | -115.26123 | 8792 ft | 286 kts | 63° |
| 2026-05-07 19:17 | 36.18064 | -115.23826 | 9294 ft | 292 kts | 69° |
| 2026-05-07 19:17 | 36.18783 | -115.21458 | 9900 ft | 294 kts | 69° |
| 2026-05-07 19:17 | 36.19447 | -115.19041 | 10383 ft | 302 kts | 75° |
| 2026-05-07 19:18 | 36.19681 | -115.16391 | 10631 ft | 318 kts | 88° |
| 2026-05-07 19:18 | 36.19682 | -115.13587 | 10866 ft | 333 kts | 89° |
| 2026-05-07 19:18 | 36.19660 | -115.10656 | 11085 ft | 346 kts | 89° |
| 2026-05-07 19:18 | 36.19644 | -115.07631 | 11349 ft | 356 kts | 89° |
| 2026-05-07 19:19 | 36.19635 | -115.04541 | 11775 ft | 360 kts | 89° |
| 2026-05-07 19:19 | 36.19631 | -115.01436 | 12285 ft | 362 kts | 89° |
| 2026-05-07 19:19 | 36.19627 | -114.98302 | 12805 ft | 364 kts | 89° |
| 2026-05-07 19:19 | 36.19624 | -114.95160 | 13275 ft | 366 kts | 88° |
| 2026-05-07 19:20 | 36.19621 | -114.91990 | 13734 ft | 369 kts | 88° |
| 2026-05-07 19:20 | 36.19618 | -114.88798 | 14190 ft | 371 kts | 88° |
| 2026-05-07 19:20 | 36.19614 | -114.85599 | 14647 ft | 373 kts | 88° |
| 2026-05-07 19:20 | 36.19609 | -114.82373 | 15107 ft | 375 kts | 88° |
| 2026-05-07 19:21 | 36.19603 | -114.79133 | 15533 ft | 378 kts | 88° |
| 2026-05-07 19:21 | 36.19596 | -114.75907 | 15976 ft | 381 kts | 88° |
| 2026-05-07 19:21 | 36.19589 | -114.72631 | 16435 ft | 382 kts | 88° |
| 2026-05-07 19:21 | 36.19581 | -114.69331 | 16888 ft | 384 kts | 88° |
| 2026-05-07 19:22 | 36.19575 | -114.66007 | 17310 ft | 386 kts | 88° |
| 2026-05-07 19:22 | 36.19568 | -114.62672 | 17740 ft | 389 kts | 88° |
| 2026-05-07 19:22 | 36.19559 | -114.59316 | 18167 ft | 390 kts | 88° |
| 2026-05-07 19:22 | 36.19550 | -114.55943 | 18583 ft | 393 kts | 88° |
| 2026-05-07 19:23 | 36.19542 | -114.52542 | 18973 ft | 396 kts | 88° |
| 2026-05-07 19:23 | 36.19533 | -114.49129 | 19362 ft | 398 kts | 88° |
| 2026-05-07 19:23 | 36.19521 | -114.45695 | 19752 ft | 400 kts | 88° |
| 2026-05-07 19:23 | 36.19509 | -114.42243 | 20117 ft | 403 kts | 88° |
| 2026-05-07 19:24 | 36.19493 | -114.38764 | 20520 ft | 405 kts | 88° |
| 2026-05-07 19:24 | 36.19478 | -114.35275 | 20873 ft | 407 kts | 88° |
| 2026-05-07 19:24 | 36.19463 | -114.31757 | 21239 ft | 409 kts | 88° |
| 2026-05-07 19:24 | 36.19444 | -114.28225 | 21583 ft | 411 kts | 88° |
| 2026-05-07 19:25 | 36.19469 | -114.24721 | 21868 ft | 413 kts | 85° |
| 2026-05-07 19:25 | 36.19762 | -114.21183 | 22192 ft | 414 kts | 80° |
| 2026-05-07 19:25 | 36.20176 | -114.17648 | 22534 ft | 415 kts | 79° |
| 2026-05-07 19:25 | 36.20607 | -114.14103 | 22835 ft | 417 kts | 79° |
| 2026-05-07 19:26 | 36.21038 | -114.10539 | 23109 ft | 420 kts | 79° |
| 2026-05-07 19:26 | 36.21469 | -114.06947 | 23402 ft | 422 kts | 79° |
| 2026-05-07 19:26 | 36.21897 | -114.03344 | 23723 ft | 424 kts | 79° |
| 2026-05-07 19:26 | 36.22328 | -113.99721 | 24014 ft | 426 kts | 79° |
| 2026-05-07 19:27 | 36.22759 | -113.96083 | 24305 ft | 428 kts | 79° |
| 2026-05-07 19:27 | 36.23190 | -113.92426 | 24621 ft | 430 kts | 79° |
| 2026-05-07 19:27 | 36.23621 | -113.88760 | 24942 ft | 432 kts | 79° |
| 2026-05-07 19:27 | 36.24053 | -113.85076 | 25252 ft | 433 kts | 79° |
| 2026-05-07 19:28 | 36.24486 | -113.81374 | 25568 ft | 435 kts | 79° |
| 2026-05-07 19:28 | 36.24920 | -113.77654 | 25874 ft | 437 kts | 79° |
| 2026-05-07 19:28 | 36.25355 | -113.73920 | 26182 ft | 439 kts | 79° |
| 2026-05-07 19:28 | 36.25790 | -113.70168 | 26491 ft | 441 kts | 79° |
| 2026-05-07 19:29 | 36.26226 | -113.66400 | 26819 ft | 443 kts | 79° |
| 2026-05-07 19:29 | 36.26663 | -113.62617 | 27162 ft | 445 kts | 79° |
| 2026-05-07 19:29 | 36.27100 | -113.58816 | 27491 ft | 447 kts | 79° |
| 2026-05-07 19:29 | 36.27539 | -113.54995 | 27833 ft | 449 kts | 79° |
| 2026-05-07 19:30 | 36.27978 | -113.51154 | 28173 ft | 451 kts | 79° |
| 2026-05-07 19:30 | 36.28417 | -113.47303 | 28505 ft | 453 kts | 79° |
| 2026-05-07 19:30 | 36.28853 | -113.43470 | 28860 ft | 455 kts | 79° |
| 2026-05-07 19:30 | 36.29295 | -113.39573 | 29216 ft | 458 kts | 79° |
| 2026-05-07 19:31 | 36.29737 | -113.35656 | 29554 ft | 460 kts | 79° |
| 2026-05-07 19:31 | 36.30182 | -113.31708 | 29922 ft | 462 kts | 79° |
| 2026-05-07 19:31 | 36.30627 | -113.27749 | 30281 ft | 465 kts | 79° |
| 2026-05-07 19:31 | 36.31176 | -113.23804 | 30635 ft | 465 kts | 74° |
| 2026-05-07 19:32 | 36.32130 | -113.19983 | 31026 ft | 463 kts | 65° |
| 2026-05-07 19:32 | 36.33376 | -113.16300 | 31391 ft | 464 kts | 64° |
| 2026-05-07 19:32 | 36.34677 | -113.12630 | 31757 ft | 466 kts | 63° |
| 2026-05-07 19:32 | 36.35984 | -113.08945 | 32100 ft | 468 kts | 64° |
| 2026-05-07 19:33 | 36.37296 | -113.05239 | 32422 ft | 470 kts | 64° |
| 2026-05-07 19:33 | 36.38607 | -113.01520 | 32702 ft | 472 kts | 64° |
| 2026-05-07 19:33 | 36.39924 | -112.97773 | 33022 ft | 474 kts | 64° |
| 2026-05-07 19:33 | 36.41239 | -112.94022 | 33355 ft | 475 kts | 64° |
| 2026-05-07 19:34 | 36.42558 | -112.90259 | 33653 ft | 476 kts | 64° |
| 2026-05-07 19:34 | 36.43877 | -112.86486 | 34055 ft | 475 kts | 64° |
| 2026-05-07 19:34 | 36.45188 | -112.82733 | 34483 ft | 473 kts | 64° |
| 2026-05-07 19:34 | 36.46498 | -112.78979 | 34869 ft | 472 kts | 64° |
| 2026-05-07 19:35 | 36.47804 | -112.75237 | 35275 ft | 472 kts | 64° |
| 2026-05-07 19:35 | 36.49106 | -112.71500 | 35650 ft | 471 kts | 64° |
| 2026-05-07 19:35 | 36.50406 | -112.67763 | 36004 ft | 470 kts | 64° |
| 2026-05-07 19:35 | 36.51702 | -112.64034 | 36363 ft | 470 kts | 64° |
| 2026-05-07 19:36 | 36.52976 | -112.60355 | 36725 ft | 469 kts | 64° |
| 2026-05-07 19:36 | 36.54268 | -112.56625 | 37072 ft | 469 kts | 64° |
| 2026-05-07 19:36 | 36.55554 | -112.52905 | 37460 ft | 467 kts | 64° |
| 2026-05-07 19:36 | 36.56831 | -112.49209 | 37842 ft | 465 kts | 64° |
| 2026-05-07 19:37 | 36.58104 | -112.45518 | 38239 ft | 462 kts | 64° |
| 2026-05-07 19:37 | 36.59370 | -112.41850 | 38585 ft | 460 kts | 64° |
| 2026-05-07 19:37 | 36.60629 | -112.38190 | 38861 ft | 460 kts | 64° |
| 2026-05-07 19:37 | 36.61890 | -112.34524 | 39140 ft | 460 kts | 64° |
| 2026-05-07 19:38 | 36.63151 | -112.30852 | 39369 ft | 461 kts | 64° |
| 2026-05-07 19:38 | 36.64415 | -112.27170 | 39520 ft | 464 kts | 64° |
| 2026-05-07 19:38 | 36.65682 | -112.23472 | 39697 ft | 465 kts | 64° |
| 2026-05-07 19:38 | 36.66953 | -112.19761 | 39890 ft | 467 kts | 64° |
| 2026-05-07 19:39 | 36.68227 | -112.16032 | 40044 ft | 469 kts | 65° |
| 2026-05-07 19:39 | 36.69503 | -112.12293 | 40251 ft | 470 kts | 65° |
| 2026-05-07 19:39 | 36.70786 | -112.08532 | 40415 ft | 471 kts | 65° |
| 2026-05-07 19:39 | 36.72068 | -112.04767 | 40573 ft | 473 kts | 65° |
| 2026-05-07 19:40 | 36.73356 | -112.00981 | 40713 ft | 475 kts | 65° |
| 2026-05-07 19:40 | 36.74631 | -111.97227 | 40856 ft | 477 kts | 65° |
| 2026-05-07 19:40 | 36.77227 | -111.89570 | 41049 ft | 482 kts | 65° |
| 2026-05-07 19:41 | 36.78534 | -111.85706 | 41182 ft | 483 kts | 65° |
| 2026-05-07 19:41 | 36.79839 | -111.81844 | 41193 ft | 483 kts | 65° |
| 2026-05-07 19:41 | 36.82446 | -111.74112 | 41184 ft | 483 kts | 65° |
| 2026-05-07 19:42 | 36.85089 | -111.66387 | 41167 ft | 483 kts | 62° |
| 2026-05-07 19:42 | 36.88395 | -111.59101 | 41166 ft | 482 kts | 57° |
| 2026-05-07 19:43 | 36.91831 | -111.51915 | 41166 ft | 482 kts | 57° |
| 2026-05-07 19:43 | 36.95269 | -111.44697 | 41164 ft | 483 kts | 57° |
| 2026-05-07 19:44 | 36.98684 | -111.37508 | 41164 ft | 483 kts | 57° |
| 2026-05-07 19:44 | 37.02110 | -111.30276 | 41164 ft | 484 kts | 57° |
| 2026-05-07 19:45 | 37.05538 | -111.23022 | 41165 ft | 484 kts | 57° |
| 2026-05-07 19:45 | 37.08966 | -111.15753 | 41163 ft | 485 kts | 57° |
| 2026-05-07 19:46 | 37.12396 | -111.08468 | 41165 ft | 485 kts | 57° |
| 2026-05-07 19:46 | 37.15822 | -111.01169 | 41164 ft | 486 kts | 57° |
| 2026-05-07 19:47 | 37.19247 | -110.93857 | 41164 ft | 486 kts | 57° |
| 2026-05-07 19:47 | 37.22672 | -110.86530 | 41162 ft | 487 kts | 57° |
| 2026-05-07 19:48 | 37.26097 | -110.79187 | 41156 ft | 488 kts | 57° |
| 2026-05-07 19:48 | 37.29522 | -110.71825 | 41156 ft | 488 kts | 57° |
| 2026-05-07 19:49 | 37.32924 | -110.64499 | 41147 ft | 489 kts | 57° |
| 2026-05-07 19:49 | 37.36348 | -110.57110 | 41147 ft | 489 kts | 57° |
| 2026-05-07 19:50 | 37.39774 | -110.49700 | 41147 ft | 490 kts | 57° |
| 2026-05-07 19:50 | 37.43197 | -110.42278 | 41146 ft | 491 kts | 57° |
| 2026-05-07 19:51 | 37.46622 | -110.34835 | 41146 ft | 491 kts | 57° |
| 2026-05-07 19:51 | 37.50049 | -110.27370 | 41155 ft | 492 kts | 57° |
| 2026-05-07 19:52 | 37.53469 | -110.19903 | 41156 ft | 492 kts | 57° |
| 2026-05-07 19:52 | 37.56865 | -110.12472 | 41166 ft | 493 kts | 57° |
| 2026-05-07 19:53 | 37.60283 | -110.04975 | 41179 ft | 493 kts | 57° |
| 2026-05-07 19:53 | 37.63699 | -109.97466 | 41190 ft | 493 kts | 57° |
| 2026-05-07 19:54 | 37.66537 | -109.91216 | 41199 ft | 494 kts | 57° |
| 2026-05-07 19:54 | 37.69955 | -109.83671 | 41203 ft | 495 kts | 57° |
| 2026-05-07 19:55 | 37.73368 | -109.76118 | 41211 ft | 495 kts | 57° |
| 2026-05-07 19:55 | 37.76780 | -109.68550 | 41212 ft | 495 kts | 58° |
| 2026-05-07 19:56 | 37.80189 | -109.60974 | 41219 ft | 496 kts | 58° |
| 2026-05-07 19:56 | 37.83590 | -109.53394 | 41228 ft | 496 kts | 58° |
| 2026-05-07 19:57 | 37.86995 | -109.45788 | 41237 ft | 496 kts | 58° |
| 2026-05-07 19:57 | 37.90396 | -109.38175 | 41249 ft | 497 kts | 58° |
| 2026-05-07 19:58 | 37.93794 | -109.30548 | 41260 ft | 498 kts | 58° |
| 2026-05-07 19:58 | 37.97193 | -109.22902 | 41254 ft | 498 kts | 58° |
| 2026-05-07 19:59 | 38.00591 | -109.15240 | 41255 ft | 499 kts | 58° |
| 2026-05-07 19:59 | 38.03988 | -109.07560 | 41248 ft | 499 kts | 57° |
| 2026-05-07 20:00 | 38.07384 | -108.99866 | 41238 ft | 499 kts | 58° |
| 2026-05-07 20:00 | 38.10769 | -108.92163 | 41228 ft | 500 kts | 58° |
| 2026-05-07 20:01 | 38.13865 | -108.84282 | 41219 ft | 502 kts | 61° |
| 2026-05-07 20:01 | 38.16949 | -108.76327 | 41224 ft | 502 kts | 60° |
| 2026-05-07 20:02 | 38.20059 | -108.68354 | 41251 ft | 503 kts | 60° |
| 2026-05-07 20:02 | 38.23172 | -108.60380 | 41248 ft | 504 kts | 60° |
| 2026-05-07 20:03 | 38.26292 | -108.52373 | 41247 ft | 505 kts | 60° |
| 2026-05-07 20:03 | 38.29409 | -108.44357 | 41228 ft | 505 kts | 61° |
| 2026-05-07 20:04 | 38.32504 | -108.36378 | 41222 ft | 505 kts | 61° |
| 2026-05-07 20:04 | 38.35625 | -108.28310 | 41212 ft | 505 kts | 61° |
| 2026-05-07 20:05 | 38.38709 | -108.20316 | 41210 ft | 505 kts | 61° |
| 2026-05-07 20:05 | 38.41805 | -108.12270 | 41201 ft | 506 kts | 61° |
| 2026-05-07 20:06 | 38.44896 | -108.04217 | 41192 ft | 506 kts | 61° |
| 2026-05-07 20:06 | 38.47980 | -107.96140 | 41182 ft | 506 kts | 62° |
| 2026-05-07 20:07 | 38.51038 | -107.88030 | 41183 ft | 508 kts | 62° |
| 2026-05-07 20:07 | 38.54099 | -107.79901 | 41184 ft | 508 kts | 62° |
| 2026-05-07 20:08 | 38.57164 | -107.71744 | 41183 ft | 509 kts | 62° |
| 2026-05-07 20:08 | 38.60225 | -107.63583 | 41192 ft | 509 kts | 62° |
| 2026-05-07 20:09 | 38.63285 | -107.55398 | 41193 ft | 510 kts | 62° |
| 2026-05-07 20:10 | 38.67868 | -107.43178 | 41202 ft | 510 kts | 61° |
| 2026-05-07 20:10 | 38.70971 | -107.35007 | 41208 ft | 511 kts | 61° |
| 2026-05-07 20:11 | 38.74070 | -107.26806 | 41217 ft | 512 kts | 61° |
| 2026-05-07 20:11 | 38.77164 | -107.18589 | 41219 ft | 512 kts | 61° |
| 2026-05-07 20:12 | 38.80257 | -107.10350 | 41218 ft | 513 kts | 61° |
| 2026-05-07 20:12 | 38.83351 | -107.02094 | 41214 ft | 514 kts | 61° |
| 2026-05-07 20:12 | 38.84881 | -106.97991 | 40997 ft | 507 kts | 61° |
| 2026-05-07 20:13 | 38.86407 | -106.93896 | 40746 ft | 511 kts | 61° |
| 2026-05-07 20:13 | 38.87943 | -106.89769 | 40507 ft | 513 kts | 61° |
| 2026-05-07 20:13 | 38.89480 | -106.85631 | 40256 ft | 513 kts | 61° |
| 2026-05-07 20:13 | 38.91009 | -106.81503 | 40003 ft | 512 kts | 61° |
| 2026-05-07 20:14 | 38.92538 | -106.77373 | 39739 ft | 511 kts | 61° |
| 2026-05-07 20:14 | 38.94052 | -106.73276 | 39263 ft | 507 kts | 61° |
| 2026-05-07 20:14 | 38.95546 | -106.69231 | 38615 ft | 506 kts | 60° |
| 2026-05-07 20:14 | 38.97053 | -106.65147 | 37951 ft | 505 kts | 60° |
| 2026-05-07 20:15 | 38.98553 | -106.61078 | 37273 ft | 504 kts | 60° |
| 2026-05-07 20:15 | 39.00054 | -106.57002 | 36507 ft | 504 kts | 60° |
| 2026-05-07 20:15 | 39.01571 | -106.52874 | 35700 ft | 504 kts | 59° |
| 2026-05-07 20:15 | 39.03045 | -106.48855 | 34890 ft | 505 kts | 59° |
| 2026-05-07 20:16 | 39.04544 | -106.44760 | 34024 ft | 506 kts | 59° |
| 2026-05-07 20:16 | 39.06045 | -106.40658 | 33071 ft | 508 kts | 59° |
| 2026-05-07 20:16 | 39.07556 | -106.36525 | 32013 ft | 513 kts | 59° |
| 2026-05-07 20:16 | 39.09077 | -106.32358 | 30927 ft | 516 kts | 59° |
| 2026-05-07 20:17 | 39.10609 | -106.28151 | 29866 ft | 520 kts | 60° |
| 2026-05-07 20:17 | 39.12137 | -106.23943 | 29032 ft | 518 kts | 60° |
| 2026-05-07 20:17 | 39.13657 | -106.19753 | 28214 ft | 515 kts | 60° |
| 2026-05-07 20:17 | 39.15168 | -106.15578 | 27407 ft | 513 kts | 60° |
| 2026-05-07 20:18 | 39.16670 | -106.11423 | 26606 ft | 509 kts | 61° |
| 2026-05-07 20:18 | 39.18162 | -106.07297 | 25780 ft | 507 kts | 61° |
| 2026-05-07 20:18 | 39.19647 | -106.03185 | 24975 ft | 503 kts | 61° |
| 2026-05-07 20:18 | 39.21115 | -105.99113 | 24182 ft | 499 kts | 62° |
| 2026-05-07 20:19 | 39.22566 | -105.95084 | 23429 ft | 494 kts | 62° |
| 2026-05-07 20:19 | 39.23996 | -105.91107 | 23155 ft | 479 kts | 62° |
| 2026-05-07 20:19 | 39.25372 | -105.87273 | 22920 ft | 463 kts | 62° |
| 2026-05-07 20:19 | 39.26700 | -105.83559 | 22692 ft | 448 kts | 62° |
| 2026-05-07 20:20 | 39.27970 | -105.80008 | 22484 ft | 434 kts | 62° |
| 2026-05-07 20:20 | 39.29214 | -105.76524 | 22296 ft | 421 kts | 62° |
| 2026-05-07 20:20 | 39.30416 | -105.73154 | 22094 ft | 408 kts | 62° |
| 2026-05-07 20:20 | 39.31593 | -105.69858 | 21711 ft | 401 kts | 62° |
| 2026-05-07 20:21 | 39.32753 | -105.66610 | 21241 ft | 397 kts | 62° |
| 2026-05-07 20:21 | 39.33923 | -105.63392 | 20767 ft | 393 kts | 61° |
| 2026-05-07 20:21 | 39.35088 | -105.60214 | 20299 ft | 390 kts | 61° |
| 2026-05-07 20:21 | 39.36244 | -105.57065 | 19825 ft | 387 kts | 61° |
| 2026-05-07 20:22 | 39.37392 | -105.53928 | 19402 ft | 384 kts | 61° |
| 2026-05-07 20:22 | 39.38514 | -105.50830 | 19045 ft | 376 kts | 61° |
| 2026-05-07 20:22 | 39.39611 | -105.47811 | 18872 ft | 364 kts | 61° |
| 2026-05-07 20:22 | 39.40673 | -105.44887 | 18629 ft | 355 kts | 61° |
| 2026-05-07 20:23 | 39.41527 | -105.41906 | 18232 ft | 357 kts | 75° |
| 2026-05-07 20:23 | 39.41748 | -105.38714 | 17845 ft | 355 kts | 86° |
| 2026-05-07 20:23 | 39.41764 | -105.35535 | 17432 ft | 353 kts | 88° |
| 2026-05-07 20:23 | 39.41763 | -105.32378 | 16965 ft | 351 kts | 88° |
| 2026-05-07 20:24 | 39.41768 | -105.29222 | 16467 ft | 351 kts | 88° |
| 2026-05-07 20:24 | 39.41780 | -105.26109 | 16141 ft | 343 kts | 88° |
| 2026-05-07 20:24 | 39.41791 | -105.23028 | 15703 ft | 341 kts | 88° |
| 2026-05-07 20:24 | 39.41808 | -105.19963 | 15273 ft | 340 kts | 88° |
| 2026-05-07 20:25 | 39.41822 | -105.16926 | 14901 ft | 335 kts | 88° |
| 2026-05-07 20:25 | 39.41834 | -105.13922 | 14460 ft | 332 kts | 88° |
| 2026-05-07 20:25 | 39.41845 | -105.10973 | 14280 ft | 322 kts | 88° |
| 2026-05-07 20:25 | 39.41852 | -105.08129 | 14150 ft | 311 kts | 88° |
| 2026-05-07 20:26 | 39.41861 | -105.05387 | 14016 ft | 300 kts | 88° |
| 2026-05-07 20:26 | 39.41871 | -105.02739 | 13890 ft | 289 kts | 88° |
| 2026-05-07 20:26 | 39.41880 | -105.00170 | 13686 ft | 283 kts | 88° |
| 2026-05-07 20:26 | 39.41887 | -104.97650 | 13391 ft | 279 kts | 88° |
| 2026-05-07 20:27 | 39.41900 | -104.95144 | 13038 ft | 277 kts | 87° |
| 2026-05-07 20:27 | 39.42039 | -104.92708 | 12763 ft | 273 kts | 82° |
| 2026-05-07 20:27 | 39.42249 | -104.90264 | 12518 ft | 268 kts | 81° |
| 2026-05-07 20:27 | 39.42464 | -104.87875 | 12245 ft | 267 kts | 81° |
| 2026-05-07 20:28 | 39.42703 | -104.85502 | 12019 ft | 264 kts | 77° |
| 2026-05-07 20:28 | 39.43513 | -104.83477 | 11715 ft | 256 kts | 41° |
| 2026-05-07 20:28 | 39.44915 | -104.82102 | 11532 ft | 253 kts | 30° |
| 2026-05-07 20:28 | 39.46383 | -104.80841 | 11337 ft | 253 kts | 30° |
| 2026-05-07 20:29 | 39.47855 | -104.79587 | 11175 ft | 253 kts | 30° |
| 2026-05-07 20:29 | 39.49326 | -104.78333 | 11014 ft | 253 kts | 30° |
| 2026-05-07 20:29 | 39.50791 | -104.77082 | 10912 ft | 252 kts | 30° |
| 2026-05-07 20:29 | 39.52255 | -104.75830 | 10905 ft | 252 kts | 30° |
| 2026-05-07 20:30 | 39.53721 | -104.74577 | 10912 ft | 253 kts | 30° |
| 2026-05-07 20:30 | 39.55192 | -104.73320 | 10904 ft | 253 kts | 30° |
| 2026-05-07 20:30 | 39.56663 | -104.72065 | 10739 ft | 253 kts | 30° |
| 2026-05-07 20:30 | 39.58131 | -104.70811 | 10433 ft | 252 kts | 30° |
| 2026-05-07 20:31 | 39.59596 | -104.69558 | 10071 ft | 253 kts | 30° |
| 2026-05-07 20:31 | 39.61068 | -104.68301 | 9694 ft | 253 kts | 30° |
| 2026-05-07 20:31 | 39.62553 | -104.67067 | 9354 ft | 253 kts | 26° |
| 2026-05-07 20:31 | 39.64160 | -104.66270 | 9054 ft | 244 kts | 7° |
| 2026-05-07 20:32 | 39.65832 | -104.66176 | 8750 ft | 238 kts | 353° |
| 2026-05-07 20:32 | 39.67482 | -104.66273 | 8427 ft | 237 kts | 356° |
| 2026-05-07 20:32 | 39.69132 | -104.66217 | 8121 ft | 236 kts | 358° |
| 2026-05-07 20:32 | 39.70757 | -104.66182 | 7817 ft | 231 kts | 357° |
| 2026-05-07 20:33 | 39.72344 | -104.66174 | 7483 ft | 225 kts | 356° |
| 2026-05-07 20:33 | 39.73866 | -104.66155 | 7194 ft | 211 kts | 356° |
| 2026-05-07 20:33 | 39.75286 | -104.66134 | 6936 ft | 197 kts | 356° |
| 2026-05-07 20:33 | 39.76616 | -104.66120 | 6670 ft | 185 kts | 354° |
| 2026-05-07 20:34 | 39.77862 | -104.66102 | 6417 ft | 175 kts | 355° |
| 2026-05-07 20:34 | 39.79053 | -104.66058 | 6191 ft | 167 kts | 355° |
| 2026-05-07 20:34 | 39.80209 | -104.66035 | 5930 ft | 166 kts | 357° |
| 2026-05-07 20:34 | 39.81337 | -104.66033 | 5718 ft | 160 kts | 353° |
| 2026-05-07 20:35 | 39.82448 | -104.66051 | 5520 ft | 160 kts | 0° |
| 2026-05-07 20:35 | 39.83556 | -104.66041 | 5364 ft | 153 kts | 3° |
| 2026-05-07 20:35 | 39.84320 | -104.66034 | 5379 ft | 78 kts | 0° |
| 2026-05-07 20:35 | 39.84770 | -104.66075 | 5386 ft | 37 kts | 338° |
| 2026-05-07 20:36 | 39.84976 | -104.66207 | 5382 ft | 24 kts | 335° |
| 2026-05-07 20:36 | 39.85098 | -104.66248 | 5385 ft | 16 kts | 353° |
| 2026-05-07 20:36 | 39.85192 | -104.66283 | 5384 ft | 12 kts | 302° |
| 2026-05-07 20:36 | 39.85205 | -104.66346 | 5390 ft | 8 kts | 269° |